createdAt,value
2022-10-22T00:01:20.118Z,3.25
2022-10-22T00:03:47.906Z,3.30
2022-10-22T00:06:17.020Z,3.75
2022-10-22T00:08:44.798Z,3.85
2022-10-22T00:11:14.902Z,3.85
2022-10-22T00:13:43.303Z,3.67
2022-10-22T00:16:11.350Z,4.00
2022-10-22T00:18:39.464Z,3.70
2022-10-22T00:21:08.401Z,3.70
2022-10-22T00:23:37.573Z,3.85
2022-10-22T00:26:05.335Z,3.80
2022-10-22T00:28:33.045Z,3.83
2022-10-22T00:31:01.773Z,4.13
2022-10-22T00:33:30.973Z,3.78
2022-10-22T00:35:59.264Z,3.72
2022-10-22T00:38:27.088Z,4.28
2022-10-22T00:40:56.910Z,4.53
2022-10-22T00:43:28.497Z,3.90
2022-10-22T00:45:56.200Z,3.53
2022-10-22T00:48:28.234Z,3.90
2022-10-22T00:50:59.421Z,3.85
2022-10-22T00:53:30.960Z,3.97
2022-10-22T00:56:00.281Z,4.22
2022-10-22T00:58:30.566Z,3.90
2022-10-22T01:00:59.097Z,4.07
2022-10-22T01:03:26.817Z,4.05
2022-10-22T01:05:58.903Z,4.00
2022-10-22T01:08:34.995Z,3.92
2022-10-22T01:11:16.009Z,4.43
2022-10-22T01:13:54.532Z,3.70
2022-10-22T01:16:32.453Z,3.78
2022-10-22T01:19:12.295Z,3.90
2022-10-22T01:21:45.593Z,4.72
2022-10-22T01:24:37.826Z,3.90
2022-10-22T01:27:20.888Z,3.75
2022-10-22T01:29:52.950Z,3.92
2022-10-22T01:32:24.448Z,3.65
2022-10-22T01:34:58.079Z,3.97
2022-10-22T01:37:30.052Z,3.67
2022-10-22T01:39:58.927Z,3.85
2022-10-22T01:42:26.813Z,3.90
2022-10-22T01:47:40.493Z,3.28
2022-10-22T01:50:32.174Z,3.53
2022-10-22T01:53:13.307Z,3.53
2022-10-22T01:55:48.847Z,4.07
2022-10-22T01:58:25.869Z,3.72
2022-10-22T02:01:03.453Z,4.43
2022-10-22T02:03:39.755Z,3.90
2022-10-22T02:06:15.588Z,4.00
2022-10-22T02:08:44.694Z,4.30
2022-10-22T02:11:13.836Z,3.67
2022-10-22T02:13:45.641Z,3.88
2022-10-22T02:16:22.730Z,3.75
2022-10-22T02:18:53.768Z,3.58
2022-10-22T02:21:21.479Z,3.78
2022-10-22T02:23:49.580Z,3.58
2022-10-22T02:26:22.998Z,3.78
2022-10-22T02:29:00.466Z,3.85
2022-10-22T02:31:33.410Z,3.90
2022-10-22T02:34:07.999Z,3.83
2022-10-22T02:36:36.456Z,4.03
2022-10-22T02:39:04.988Z,3.97
2022-10-22T02:41:33.133Z,3.85
2022-10-22T02:44:02.700Z,3.42
2022-10-22T02:46:31.838Z,3.88
2022-10-22T02:48:59.531Z,3.88
2022-10-22T02:51:27.222Z,3.83
2022-10-22T02:53:54.855Z,3.10
2022-10-22T02:58:50.243Z,3.22
2022-10-22T03:01:18.149Z,3.55
2022-10-22T03:06:15.447Z,3.50
2022-10-22T03:11:11.229Z,3.35
2022-10-22T03:13:38.996Z,3.72
2022-10-22T03:16:07.404Z,3.03
2022-10-22T03:18:35.318Z,3.30
2022-10-22T03:23:35.013Z,3.22
2022-10-22T03:26:02.991Z,3.47
2022-10-22T03:30:58.243Z,3.30
2022-10-22T03:33:26.022Z,3.95
2022-10-22T03:35:53.851Z,4.28
2022-10-22T03:38:22.998Z,3.92
2022-10-22T03:40:51.155Z,4.03
2022-10-22T03:43:19.195Z,4.10
2022-10-22T03:45:46.912Z,4.75
2022-10-22T03:48:14.944Z,4.03
2022-10-22T03:50:42.565Z,4.32
2022-10-22T03:53:10.636Z,3.97
2022-10-22T03:55:42.087Z,3.95
2022-10-22T03:58:09.854Z,3.78
2022-10-22T04:00:37.834Z,3.97
2022-10-22T04:05:33.521Z,3.92
2022-10-22T04:08:01.469Z,3.92
2022-10-22T04:12:58.037Z,3.80
2022-10-22T04:15:28.099Z,4.32
2022-10-22T04:17:56.506Z,4.15
2022-10-22T04:20:24.233Z,4.22
2022-10-22T04:22:51.881Z,4.20
2022-10-22T04:25:19.495Z,4.65
2022-10-22T04:27:47.116Z,4.05
2022-10-22T04:30:16.533Z,4.25
2022-10-22T04:32:44.141Z,4.00
2022-10-22T04:35:11.860Z,4.63
2022-10-22T04:37:39.702Z,3.85
2022-10-22T04:40:09.105Z,4.15
2022-10-22T04:42:36.787Z,3.95
2022-10-22T04:45:04.862Z,4.18
2022-10-22T04:47:33.874Z,4.82
2022-10-22T04:50:01.578Z,4.28
2022-10-22T04:52:29.404Z,4.93
2022-10-22T04:54:57.046Z,4.13
2022-10-22T04:57:26.837Z,4.22
2022-10-22T04:59:54.462Z,4.32
2022-10-22T05:02:22.114Z,4.60
2022-10-22T05:04:51.162Z,4.53
2022-10-22T05:07:19.392Z,4.53
2022-10-22T05:09:47.084Z,4.20
2022-10-22T05:12:14.661Z,4.80
2022-10-22T05:14:44.644Z,3.90
2022-10-22T05:17:12.590Z,4.70
2022-10-22T05:19:40.319Z,4.75
2022-10-22T05:22:09.365Z,4.03
2022-10-22T05:24:37.930Z,4.53
2022-10-22T05:27:05.625Z,4.30
2022-10-22T05:29:33.325Z,4.38
2022-10-22T05:32:00.951Z,3.92
2022-10-22T05:34:28.552Z,3.78
2022-10-22T05:36:56.173Z,4.15
2022-10-22T05:39:25.162Z,3.80
2022-10-22T05:41:53.935Z,4.22
2022-10-22T05:44:21.651Z,3.70
2022-10-22T05:46:49.285Z,3.85
2022-10-22T05:49:17.177Z,4.00
2022-10-22T05:54:17.713Z,3.92
2022-10-22T05:56:47.242Z,4.80
2022-10-22T05:59:15.158Z,3.42
2022-10-22T06:04:12.818Z,3.20
2022-10-22T06:06:44.170Z,3.90
2022-10-22T06:09:17.373Z,3.35
2022-10-22T06:11:47.335Z,3.70
2022-10-22T06:14:15.036Z,3.83
2022-10-22T06:16:43.256Z,3.78
2022-10-22T06:19:12.138Z,3.50
2022-10-22T06:21:39.906Z,4.03
2022-10-22T06:24:08.640Z,3.47
2022-10-22T06:26:36.284Z,3.85
2022-10-22T06:29:05.873Z,4.03
2022-10-22T06:31:36.669Z,3.90
2022-10-22T06:34:05.097Z,3.63
2022-10-22T06:36:32.844Z,3.78
2022-10-22T06:39:00.577Z,4.00
2022-10-22T06:41:29.501Z,3.80
2022-10-22T06:43:58.436Z,3.45
2022-10-22T06:46:27.575Z,3.33
2022-10-22T06:48:57.212Z,4.95
2022-10-22T06:51:25.023Z,3.30
2022-10-22T06:53:52.889Z,3.42
2022-10-22T06:58:49.800Z,3.50
2022-10-22T07:01:19.593Z,3.15
2022-10-22T07:03:50.814Z,3.85
2022-10-22T07:06:19.045Z,3.78
2022-10-22T07:08:46.820Z,3.47
2022-10-22T07:11:17.237Z,3.25
2022-10-22T07:13:46.375Z,3.10
2022-10-22T07:16:15.554Z,3.20
2022-10-22T07:18:44.040Z,2.97
2022-10-22T07:21:14.968Z,3.47
2022-10-22T07:23:42.833Z,3.17
2022-10-22T07:28:39.931Z,3.10
2022-10-22T07:31:08.733Z,2.90
2022-10-22T07:33:37.133Z,4.07
2022-10-22T07:36:10.227Z,3.22
2022-10-22T07:38:39.472Z,3.03
2022-10-22T07:41:07.301Z,2.72
2022-10-22T07:46:02.922Z,2.90
2022-10-22T07:48:30.564Z,3.00
2022-10-22T07:50:58.753Z,2.88
2022-10-22T07:53:26.457Z,2.88
2022-10-22T07:55:55.613Z,2.95
2022-10-22T07:58:23.900Z,2.42
2022-10-22T08:00:52.306Z,2.55
2022-10-22T08:03:19.951Z,2.92
2022-10-22T08:05:48.292Z,2.35
2022-10-22T08:08:17.393Z,2.28
2022-10-22T08:10:45.519Z,2.75
2022-10-22T08:13:14.924Z,2.50
2022-10-22T08:18:15.978Z,2.72
2022-10-22T08:20:43.877Z,2.70
2022-10-22T08:23:11.522Z,2.70
2022-10-22T08:25:39.186Z,2.20
2022-10-22T08:28:06.915Z,2.50
2022-10-22T08:30:37.894Z,2.30
2022-10-22T08:33:05.939Z,2.25
2022-10-22T08:35:33.622Z,3.22
2022-10-22T08:38:01.854Z,2.30
2022-10-22T08:40:33.659Z,2.22
2022-10-22T08:43:14.258Z,1.95
2022-10-22T08:45:51.615Z,1.92
2022-10-22T08:48:33.453Z,2.08
2022-10-22T08:51:01.147Z,1.98
2022-10-22T08:53:37.881Z,1.63
2022-10-22T08:56:05.880Z,2.30
2022-10-22T08:58:40.521Z,1.80
2022-10-22T09:01:14.825Z,2.05
2022-10-22T09:03:51.067Z,2.17
2022-10-22T09:06:22.989Z,1.90
2022-10-22T09:08:51.828Z,2.00
2022-10-22T09:11:28.952Z,1.63
2022-10-22T09:13:57.932Z,2.17
2022-10-22T09:16:34.966Z,2.67
2022-10-22T09:19:12.866Z,2.30
2022-10-22T09:21:50.537Z,1.98
2022-10-22T09:24:33.762Z,2.35
2022-10-22T09:27:03.153Z,2.10
2022-10-22T09:29:34.769Z,2.28
2022-10-22T09:32:04.100Z,2.00
2022-10-22T09:34:32.250Z,2.35
2022-10-22T09:37:00.689Z,1.60
2022-10-22T09:39:32.922Z,2.13
2022-10-22T09:42:00.653Z,1.95
2022-10-22T09:46:55.778Z,1.92
2022-10-22T09:49:25.105Z,1.92
2022-10-22T09:51:55.882Z,1.77
2022-10-22T09:54:25.521Z,2.08
2022-10-22T09:56:56.498Z,2.13
2022-10-22T09:59:32.501Z,1.92
2022-10-22T10:02:13.662Z,1.90
2022-10-22T10:04:54.005Z,2.20
2022-10-22T10:07:23.840Z,1.65
2022-10-22T10:09:52.598Z,2.30
2022-10-22T10:12:36.985Z,2.10
2022-10-22T10:15:16.072Z,2.20
2022-10-22T10:17:54.982Z,2.08
2022-10-22T10:20:35.778Z,2.17
2022-10-22T10:23:11.407Z,1.70
2022-10-22T10:25:54.309Z,2.20
2022-10-22T10:28:33.686Z,2.05
2022-10-22T10:31:11.897Z,1.80
2022-10-22T10:33:48.086Z,1.67
2022-10-22T10:36:26.264Z,2.00
2022-10-22T10:39:00.994Z,1.65
2022-10-22T10:41:42.216Z,1.58
2022-10-22T10:44:28.962Z,1.92
2022-10-22T10:47:05.177Z,1.52
2022-10-22T10:49:36.030Z,1.75
2022-10-22T10:52:17.492Z,1.77
2022-10-22T10:54:55.643Z,1.80
2022-10-22T10:57:40.084Z,1.60
2022-10-22T11:00:12.809Z,1.60
2022-10-22T11:03:10.283Z,1.45
2022-10-22T11:05:40.757Z,1.33
2022-10-22T11:08:15.622Z,1.95
2022-10-22T11:10:47.442Z,1.48
2022-10-22T11:13:25.605Z,1.52
2022-10-22T11:15:59.379Z,1.58
2022-10-22T11:18:33.271Z,1.60
2022-10-22T11:21:11.925Z,1.67
2022-10-22T11:23:45.832Z,1.80
2022-10-22T11:26:20.255Z,2.00
2022-10-22T11:31:20.475Z,1.33
2022-10-22T11:34:00.526Z,1.25
2022-10-22T11:36:39.175Z,1.30
2022-10-22T11:39:08.159Z,1.42
2022-10-22T11:41:37.315Z,1.38
2022-10-22T11:44:11.639Z,2.75
2022-10-22T11:49:23.193Z,1.58
2022-10-22T11:51:51.605Z,1.30
2022-10-22T11:54:32.120Z,1.50
2022-10-22T11:57:19.172Z,1.55
2022-10-22T11:59:50.959Z,1.30
2022-10-22T12:02:41.477Z,1.50
2022-10-22T12:05:36.879Z,1.63
2022-10-22T12:08:21.763Z,1.58
2022-10-22T12:11:16.395Z,1.52
2022-10-22T12:14:20.488Z,1.40
2022-10-22T12:16:56.950Z,1.23
2022-10-22T12:19:31.401Z,1.40
2022-10-22T12:22:03.016Z,1.23
2022-10-22T12:24:34.135Z,1.30
2022-10-22T12:27:03.182Z,1.35
2022-10-22T12:29:32.728Z,1.23
2022-10-22T12:32:04.277Z,1.48
2022-10-22T12:34:31.877Z,1.33
2022-10-22T12:36:59.553Z,1.77
2022-10-22T12:39:28.780Z,1.42
2022-10-22T12:41:56.565Z,1.42
2022-10-22T12:44:25.689Z,1.60
2022-10-22T12:46:56.864Z,1.50
2022-10-22T12:49:34.310Z,1.48
2022-10-22T12:52:04.096Z,1.60
2022-10-22T12:54:35.043Z,1.33
2022-10-22T12:57:03.502Z,1.60
2022-10-22T12:59:36.360Z,1.55
2022-10-22T13:02:13.307Z,1.77
2022-10-22T13:04:40.970Z,1.50
2022-10-22T13:07:21.867Z,1.52
2022-10-22T13:09:59.068Z,1.55
2022-10-22T13:12:28.636Z,1.77
2022-10-22T13:14:57.623Z,1.50
2022-10-22T13:17:40.338Z,1.60
2022-10-22T13:20:19.002Z,1.75
2022-10-22T13:23:00.187Z,1.48
2022-10-22T13:25:30.323Z,1.80
2022-10-22T13:28:00.119Z,1.65
2022-10-22T13:30:31.239Z,1.77
2022-10-22T13:33:00.760Z,1.60
2022-10-22T13:35:32.084Z,2.80
2022-10-22T13:38:00.258Z,1.90
2022-10-22T13:40:28.493Z,1.77
2022-10-22T13:42:56.140Z,1.90
2022-10-22T13:45:23.799Z,2.03
2022-10-22T13:47:54.472Z,1.83
2022-10-22T13:50:22.729Z,1.70
2022-10-22T13:52:52.352Z,2.03
2022-10-22T13:55:22.700Z,2.17
2022-10-22T13:57:50.615Z,1.90
2022-10-22T14:00:21.422Z,1.67
2022-10-22T14:02:51.551Z,1.92
2022-10-22T14:05:21.389Z,2.08
2022-10-22T14:07:49.758Z,2.08
2022-10-22T14:10:20.057Z,1.90
2022-10-22T14:12:52.371Z,2.10
2022-10-22T14:15:23.749Z,1.95
2022-10-22T14:17:54.821Z,2.00
2022-10-22T14:20:26.604Z,2.28
2022-10-22T14:22:54.676Z,2.35
2022-10-22T14:25:24.757Z,2.45
2022-10-22T14:27:52.520Z,2.25
2022-10-22T14:30:22.637Z,1.65
2022-10-22T14:32:50.974Z,2.28
2022-10-22T14:35:21.181Z,2.10
2022-10-22T14:37:50.696Z,2.03
2022-10-22T14:40:20.537Z,1.85
2022-10-22T14:42:50.014Z,1.98
2022-10-22T14:45:20.965Z,2.10
2022-10-22T14:47:48.889Z,2.05
2022-10-22T14:50:16.972Z,2.20
2022-10-22T14:52:44.839Z,1.95
2022-10-22T14:55:15.293Z,1.88
2022-10-22T14:57:43.356Z,2.33
2022-10-22T15:00:14.320Z,2.30
2022-10-22T15:02:42.149Z,2.13
2022-10-22T15:05:10.359Z,2.40
2022-10-22T15:07:39.599Z,2.75
2022-10-22T15:10:08.958Z,2.45
2022-10-22T15:12:37.998Z,2.13
2022-10-22T15:15:06.703Z,2.60
2022-10-22T15:17:34.441Z,2.35
2022-10-22T15:20:04.137Z,2.30
2022-10-22T15:22:35.022Z,2.28
2022-10-22T15:25:03.157Z,2.83
2022-10-22T15:27:31.704Z,2.47
2022-10-22T15:30:00.712Z,2.30
2022-10-22T15:32:29.437Z,2.35
2022-10-22T15:34:57.486Z,2.20
2022-10-22T15:37:25.104Z,1.80
2022-10-22T15:42:20.274Z,1.80
2022-10-22T15:44:47.893Z,2.08
2022-10-22T15:49:44.310Z,1.70
2022-10-22T15:54:43.779Z,1.83
2022-10-22T15:57:11.380Z,2.00
2022-10-22T16:02:07.275Z,1.65
2022-10-22T16:04:36.266Z,2.13
2022-10-22T16:07:03.938Z,1.92
2022-10-22T16:11:59.067Z,1.85
2022-10-22T16:16:59.501Z,1.85
2022-10-22T16:19:27.195Z,1.70
2022-10-22T16:21:59.381Z,1.50
2022-10-22T16:24:26.997Z,1.60
2022-10-22T16:29:22.985Z,2.10
2022-10-22T16:31:50.637Z,1.63
2022-10-22T16:36:45.911Z,1.70
2022-10-22T16:39:14.964Z,2.15
2022-10-22T16:41:42.597Z,1.42
2022-10-22T16:46:38.971Z,2.10
2022-10-22T16:49:07.706Z,1.95
2022-10-22T16:51:36.130Z,2.05
2022-10-22T16:54:06.809Z,3.90
2022-10-22T16:56:38.810Z,1.90
2022-10-22T16:59:07.522Z,1.77
2022-10-22T17:01:39.690Z,1.88
2022-10-22T17:04:08.819Z,1.95
2022-10-22T17:06:36.746Z,2.10
2022-10-22T17:09:05.352Z,1.80
2022-10-22T17:11:36.348Z,1.70
2022-10-22T17:14:07.865Z,1.85
2022-10-22T17:16:35.525Z,1.58
2022-10-22T17:21:32.034Z,2.10
2022-10-22T17:26:27.722Z,1.80
2022-10-22T17:28:55.743Z,1.75
2022-10-22T17:31:27.885Z,2.00
2022-10-22T17:33:57.185Z,1.65
2022-10-22T17:36:31.795Z,2.38
2022-10-22T17:39:05.476Z,4.30
2022-10-22T17:41:35.142Z,4.00
2022-10-22T17:44:04.660Z,4.78
2022-10-22T17:46:33.819Z,4.93
2022-10-22T17:49:03.447Z,6.97
2022-10-22T17:51:32.458Z,6.13
2022-10-22T17:54:01.707Z,2.90
2022-10-22T17:56:31.311Z,4.28
2022-10-22T18:01:29.824Z,8.68
2022-10-22T18:04:01.522Z,10.82
2022-10-22T18:06:29.810Z,5.72
2022-10-22T18:08:57.759Z,7.95
2022-10-22T18:11:27.768Z,6.85
2022-10-22T18:13:57.425Z,7.75
2022-10-22T18:16:25.598Z,8.93
2022-10-22T18:18:55.630Z,7.88
2022-10-22T18:21:27.743Z,7.35
2022-10-22T18:23:55.593Z,4.68
2022-10-22T18:28:54.731Z,4.00
2022-10-22T18:31:24.704Z,3.60
2022-10-22T18:36:25.448Z,3.88
2022-10-22T18:38:55.747Z,3.25
2022-10-22T18:41:23.926Z,4.35
2022-10-22T18:43:51.742Z,3.97
2022-10-22T18:48:48.025Z,3.20
2022-10-22T18:51:16.269Z,3.10
2022-10-22T18:53:58.897Z,4.60
2022-10-22T18:56:33.002Z,4.85
2022-10-22T18:59:00.713Z,3.55
2022-10-22T19:01:30.445Z,4.78
2022-10-22T19:03:58.322Z,3.83
2022-10-22T19:08:56.028Z,3.70
2022-10-22T20:47:10.374Z,4.25
2022-10-22T20:51:36.542Z,4.43
2022-10-22T20:54:05.327Z,4.95
2022-10-22T20:56:33.359Z,5.07
2022-10-22T20:59:05.388Z,4.78
2022-10-22T21:01:36.731Z,5.13
2022-10-22T21:04:05.071Z,4.72
2022-10-22T21:06:34.186Z,5.28
2022-10-22T21:09:03.349Z,5.47
2022-10-22T21:11:31.094Z,4.88
2022-10-22T21:13:58.868Z,5.10
2022-10-22T21:16:26.774Z,5.32
2022-10-22T21:21:22.178Z,5.63
2022-10-22T21:23:51.111Z,5.45
2022-10-22T21:26:21.000Z,5.35
2022-10-22T21:28:49.184Z,5.55
2022-10-22T21:31:21.901Z,5.30
2022-10-22T21:33:51.148Z,5.70
2022-10-22T21:36:22.628Z,7.45
2022-10-22T21:38:51.781Z,7.38
2022-10-22T21:41:22.612Z,7.35
2022-10-22T21:43:51.503Z,6.72
2022-10-22T21:46:21.719Z,6.00
2022-10-22T21:48:54.415Z,6.35
2022-10-22T21:51:23.667Z,5.50
2022-10-22T21:56:23.665Z,5.43
2022-10-22T21:58:51.643Z,5.22
2022-10-22T22:01:19.543Z,5.57
2022-10-22T22:06:21.184Z,5.30
2022-10-22T22:08:50.624Z,5.82
2022-10-22T22:11:20.330Z,5.90
2022-10-22T22:13:49.879Z,6.22
2022-10-22T22:16:22.439Z,7.00
2022-10-22T22:18:53.581Z,7.13
2022-10-22T22:21:22.499Z,6.55
2022-10-22T22:23:51.678Z,7.13
2022-10-22T22:26:25.399Z,7.50
2022-10-22T22:28:58.495Z,6.03
2022-10-22T22:31:28.453Z,6.43
2022-10-22T22:33:59.460Z,5.75
2022-10-22T22:36:27.082Z,6.07
2022-10-22T22:38:56.305Z,6.22
2022-10-22T22:41:24.458Z,6.90
2022-10-22T22:43:52.273Z,6.07
2022-10-22T22:48:49.737Z,6.82
2022-10-22T22:51:18.394Z,6.15
2022-10-22T22:53:46.243Z,5.82
2022-10-22T22:58:43.415Z,6.03
2022-10-22T23:01:13.240Z,6.63
2022-10-22T23:03:42.819Z,7.68
2022-10-22T23:06:11.740Z,7.03
2022-10-22T23:08:39.707Z,6.55
2022-10-22T23:11:10.087Z,6.45
2022-10-22T23:13:37.911Z,6.10
2022-10-22T23:16:10.031Z,6.32
2022-10-22T23:18:37.711Z,6.45
2022-10-22T23:21:08.314Z,5.72
2022-10-22T23:23:36.014Z,6.43
2022-10-22T23:26:04.103Z,6.25
2022-10-22T23:28:31.859Z,6.32
2022-10-22T23:30:59.682Z,6.28
2022-10-22T23:35:55.233Z,5.82
2022-10-22T23:38:24.395Z,6.68
2022-10-22T23:40:56.451Z,6.07
2022-10-22T23:43:24.426Z,6.60
2022-10-22T23:45:52.570Z,6.20
2022-10-22T23:48:20.674Z,6.85
2022-10-22T23:50:49.098Z,7.00
2022-10-22T23:53:16.982Z,6.22
2022-10-22T23:55:46.161Z,6.13
2022-10-22T23:58:13.881Z,6.15
